Time;durP1;ratioP1;P1;durP2;ratioP2;P2;SDS_P1;SDS_P2;PMS_P1;PMS_P2;Temp;Humidity;BMP_temperature;BMP_pressure;BME280_temperature;BME280_humidity;BME280_pressure;Samples;Min_cycle;Max_cycle;Signal;HPM_P1;HPM_P2
2023/09/14 00:02:27;;;;;;;5.43;1.70;;;;;;;;;;5027362;28;20227;-83
2023/09/14 00:04:55;;;;;;;4.23;1.27;;;;;;;;;;5064731;28;20235;-85
2023/09/14 00:07:20;;;;;;;3.53;1.30;;;;;;;;;;5046195;28;20216;-82
2023/09/14 00:09:46;;;;;;;5.17;1.40;;;;;;;;;;5044089;28;20222;-82
2023/09/14 00:12:14;;;;;;;2.47;1.30;;;;;;;;;;5057333;28;20287;-83
2023/09/14 00:14:39;;;;;;;7.43;1.43;;;;;;;;;;5046101;28;20222;-85
2023/09/14 00:17:12;;;;;;;2.93;1.17;;;;;;;;;;5015603;28;20219;-83
2023/09/14 00:19:37;;;;;;;4.00;1.47;;;;;;;;;;5024050;28;20234;-85
2023/09/14 00:22:03;;;;;;;2.73;1.10;;;;;;;;;;5001528;28;20229;-85
2023/09/14 00:24:31;;;;;;;2.07;1.03;;;;;;;;;;5052589;28;20235;-85
2023/09/14 00:26:59;;;;;;;1.57;1.10;;;;;;;;;;5037849;28;20223;-85
2023/09/14 00:29:25;;;;;;;1.00;0.90;;;;;;;;;;5022957;28;20226;-85
2023/09/14 00:31:50;;;;;;;1.93;0.90;;;;;;;;;;5037268;28;20219;-83
2023/09/14 00:34:16;;;;;;;2.23;1.23;;;;;;;;;;5052413;28;20712;-85
2023/09/14 00:36:45;;;;;;;2.07;1.10;;;;;;;;;;5043106;28;20223;-84
2023/09/14 00:39:11;;;;;;;2.23;0.93;;;;;;;;;;5024947;28;20654;-85
2023/09/14 00:41:36;;;;;;;2.27;0.83;;;;;;;;;;5041576;28;20223;-86
2023/09/14 00:44:04;;;;;;;2.03;1.10;;;;;;;;;;5023205;28;20285;-84
2023/09/14 00:46:32;;;;;;;5.23;1.07;;;;;;;;;;5027491;28;20276;-84
2023/09/14 00:48:57;;;;;;;1.80;0.80;;;;;;;;;;5010658;28;20223;-84
2023/09/14 00:51:23;;;;;;;1.53;1.00;;;;;;;;;;5021870;28;20566;-81
2023/09/14 00:53:52;;;;;;;2.07;1.13;;;;;;;;;;5027916;28;20219;-85
2023/09/14 00:56:20;;;;;;;1.60;1.30;;;;;;;;;;5038807;28;20227;-86
2023/09/14 00:58:47;;;;;;;4.30;1.33;;;;;;;;;;5026273;28;20628;-84
2023/09/14 01:01:14;;;;;;;2.83;1.10;;;;;;;;;;5027917;28;20211;-84
2023/09/14 01:03:40;;;;;;;1.47;1.10;;;;;;;;;;5040944;28;20250;-87
2023/09/14 01:06:06;;;;;;;4.60;1.30;;;;;;;;;;5032968;28;20307;-85
2023/09/14 01:08:34;;;;;;;2.03;1.10;;;;;;;;;;5030901;28;20234;-86
2023/09/14 01:11:01;;;;;;;1.87;1.10;;;;;;;;;;5038776;28;20714;-87
2023/09/14 01:13:59;;;;;;;1.40;1.07;;;;;;;;;;5023213;28;20230;-86
2023/09/14 01:16:26;;;;;;;4.77;0.87;;;;;;;;;;5022789;28;20939;-84
2023/09/14 01:18:59;;;;;;;3.10;1.00;;;;;;;;;;5046172;28;20302;-87
2023/09/14 01:21:50;;;;;;;1.30;1.17;;;;;;;;;;5040270;28;20242;-85
2023/09/14 01:24:38;;;;;;;4.27;1.10;;;;;;;;;;5040014;28;20227;-86
2023/09/14 01:27:05;;;;;;;4.57;1.10;;;;;;;;;;5036763;28;20223;-85
2023/09/14 01:29:30;;;;;;;2.63;1.03;;;;;;;;;;5010051;28;20270;-88
2023/09/14 01:31:59;;;;;;;2.53;0.90;;;;;;;;;;5040792;28;20230;-87
2023/09/14 01:34:24;;;;;;;0.97;0.77;;;;;;;;;;5009320;28;20211;-87
2023/09/14 01:36:51;;;;;;;3.27;1.10;;;;;;;;;;5044181;28;20223;-87
2023/09/14 01:39:17;;;;;;;10.10;1.10;;;;;;;;;;5044840;28;20591;-89
2023/09/14 01:41:46;;;;;;;1.53;1.20;;;;;;;;;;5010370;28;20231;-86
2023/09/14 01:44:16;;;;;;;2.53;1.10;;;;;;;;;;5011027;28;20591;-86
2023/09/14 01:46:42;;;;;;;2.40;1.27;;;;;;;;;;5020259;28;20219;-86
2023/09/14 01:49:09;;;;;;;2.77;1.03;;;;;;;;;;5024075;28;20615;-85
2023/09/14 01:51:35;;;;;;;0.97;0.83;;;;;;;;;;5026323;28;20245;-87
2023/09/14 01:54:03;;;;;;;2.37;0.83;;;;;;;;;;5044862;28;20215;-86
2023/09/14 01:56:29;;;;;;;1.40;0.83;;;;;;;;;;5039584;28;20226;-86
2023/09/14 01:58:54;;;;;;;2.30;0.83;;;;;;;;;;5024353;28;20249;-86
2023/09/14 02:01:20;;;;;;;0.97;0.93;;;;;;;;;;5045371;28;20711;-87
2023/09/14 02:03:46;;;;;;;1.07;0.80;;;;;;;;;;5007078;28;20560;-87
2023/09/14 02:06:14;;;;;;;2.10;0.90;;;;;;;;;;5042721;28;20250;-85
2023/09/14 02:08:42;;;;;;;1.03;0.80;;;;;;;;;;5018120;28;20227;-87
2023/09/14 02:11:08;;;;;;;2.57;0.87;;;;;;;;;;5045554;28;20217;-85
2023/09/14 02:13:37;;;;;;;1.23;0.80;;;;;;;;;;5038983;28;20239;-85
2023/09/14 02:16:05;;;;;;;1.60;0.80;;;;;;;;;;5008309;28;20211;-86
2023/09/14 02:18:35;;;;;;;1.60;1.10;;;;;;;;;;5015231;28;20211;-85
2023/09/14 02:21:06;;;;;;;1.33;0.83;;;;;;;;;;5038596;28;20222;-86
2023/09/14 02:23:36;;;;;;;1.03;0.80;;;;;;;;;;5039398;28;20223;-85
2023/09/14 02:26:04;;;;;;;3.17;0.90;;;;;;;;;;5046840;28;20222;-85
2023/09/14 02:28:32;;;;;;;1.50;1.00;;;;;;;;;;5013244;28;20242;-86
2023/09/14 02:31:05;;;;;;;1.37;0.87;;;;;;;;;;5024386;28;20272;-86
2023/09/14 02:33:33;;;;;;;3.70;0.90;;;;;;;;;;5004803;28;20233;-86
2023/09/14 02:35:59;;;;;;;0.70;0.70;;;;;;;;;;5026997;28;20253;-86
2023/09/14 02:38:25;;;;;;;2.40;1.00;;;;;;;;;;5021737;28;20655;-85
2023/09/14 02:40:51;;;;;;;0.73;0.73;;;;;;;;;;5010069;28;20567;-86
2023/09/14 02:43:16;;;;;;;2.13;0.90;;;;;;;;;;5036915;28;20222;-86
2023/09/14 02:45:42;;;;;;;8.87;1.13;;;;;;;;;;5045479;28;20567;-85
2023/09/14 02:48:07;;;;;;;2.17;1.10;;;;;;;;;;5038485;28;20216;-86
2023/09/14 02:50:36;;;;;;;0.77;0.70;;;;;;;;;;5019887;28;20220;-86
2023/09/14 02:53:01;;;;;;;0.80;0.80;;;;;;;;;;5029779;28;20215;-86
2023/09/14 02:55:27;;;;;;;1.17;0.90;;;;;;;;;;5029529;28;20587;-86
2023/09/14 02:57:55;;;;;;;0.63;0.63;;;;;;;;;;5027152;28;20574;-87
2023/09/14 03:00:26;;;;;;;2.00;0.80;;;;;;;;;;5020184;28;20242;-86
2023/09/14 03:02:52;;;;;;;2.23;0.90;;;;;;;;;;5041177;28;20707;-85
2023/09/14 03:05:20;;;;;;;1.20;1.10;;;;;;;;;;5055788;28;20218;-87
2023/09/14 03:07:46;;;;;;;1.20;1.10;;;;;;;;;;5035467;28;20219;-85
2023/09/14 03:10:12;;;;;;;1.00;0.90;;;;;;;;;;5012276;28;20301;-86
2023/09/14 03:12:38;;;;;;;1.00;0.80;;;;;;;;;;5020692;28;20208;-87
2023/09/14 03:15:06;;;;;;;2.00;1.17;;;;;;;;;;5028999;28;20585;-86
2023/09/14 03:17:34;;;;;;;1.33;1.10;;;;;;;;;;5030850;28;20644;-86
2023/09/14 03:20:06;;;;;;;1.57;0.90;;;;;;;;;;5018024;28;20207;-85
2023/09/14 03:22:34;;;;;;;1.13;0.80;;;;;;;;;;5032853;28;20227;-86
2023/09/14 03:25:00;;;;;;;1.50;0.93;;;;;;;;;;5015360;28;20219;-87
2023/09/14 03:27:26;;;;;;;2.60;0.83;;;;;;;;;;5022293;28;20286;-86
2023/09/14 03:29:51;;;;;;;1.30;0.80;;;;;;;;;;5021236;28;20295;-86
2023/09/14 03:32:20;;;;;;;1.40;0.90;;;;;;;;;;5034606;28;20219;-86
2023/09/14 03:34:48;;;;;;;1.07;0.77;;;;;;;;;;5017047;28;20283;-86
2023/09/14 03:37:15;;;;;;;0.97;0.80;;;;;;;;;;5020696;28;20261;-85
2023/09/14 03:39:45;;;;;;;1.70;0.90;;;;;;;;;;5034872;28;20228;-86
2023/09/14 03:42:11;;;;;;;1.27;0.90;;;;;;;;;;5019744;28;20257;-85
2023/09/14 03:44:39;;;;;;;2.30;1.07;;;;;;;;;;5048368;28;20265;-85
2023/09/14 03:47:04;;;;;;;3.53;1.07;;;;;;;;;;5025407;28;20215;-84
2023/09/14 03:49:37;;;;;;;1.40;0.73;;;;;;;;;;5022218;28;20235;-85
2023/09/14 03:52:03;;;;;;;2.37;0.83;;;;;;;;;;5027528;28;20227;-84
2023/09/14 03:54:30;;;;;;;0.80;0.80;;;;;;;;;;5059504;28;20971;-84
2023/09/14 03:56:55;;;;;;;2.43;0.90;;;;;;;;;;5008200;28;20226;-86
2023/09/14 03:59:21;;;;;;;1.00;0.70;;;;;;;;;;5041877;28;20225;-84
2023/09/14 04:05:34;;;;;;;0.77;0.73;;;;;;;;;;5048086;28;20235;-84
2023/09/14 04:08:00;;;;;;;3.23;0.87;;;;;;;;;;5013558;28;20227;-84
2023/09/14 04:10:25;;;;;;;2.27;1.00;;;;;;;;;;5014086;28;21237;-85
2023/09/14 04:12:53;;;;;;;6.10;0.90;;;;;;;;;;5029280;28;20215;-85
2023/09/14 04:15:21;;;;;;;3.87;0.97;;;;;;;;;;5036813;28;20219;-83
2023/09/14 04:17:47;;;;;;;1.10;0.83;;;;;;;;;;5018706;28;20300;-84
2023/09/14 04:20:14;;;;;;;0.60;0.57;;;;;;;;;;5018503;28;20367;-83
2023/09/14 04:22:41;;;;;;;1.10;0.70;;;;;;;;;;5014457;28;20216;-85
2023/09/14 04:25:10;;;;;;;1.70;0.90;;;;;;;;;;5041126;28;21095;-84
2023/09/14 04:27:39;;;;;;;3.03;0.80;;;;;;;;;;5029776;28;20216;-85
2023/09/14 04:30:08;;;;;;;1.00;0.90;;;;;;;;;;5014878;28;20211;-85
2023/09/14 04:32:36;;;;;;;2.40;0.70;;;;;;;;;;5018689;28;20220;-84
2023/09/14 04:35:03;;;;;;;0.97;0.70;;;;;;;;;;5018240;28;20203;-83
2023/09/14 04:37:31;;;;;;;3.10;0.90;;;;;;;;;;5018115;28;20226;-85
2023/09/14 04:39:58;;;;;;;2.57;1.10;;;;;;;;;;5048030;28;20216;-85
2023/09/14 04:42:27;;;;;;;2.47;0.90;;;;;;;;;;5017685;28;20262;-87
2023/09/14 04:44:54;;;;;;;1.50;1.10;;;;;;;;;;5009288;28;20886;-85
2023/09/14 04:47:20;;;;;;;2.20;0.80;;;;;;;;;;5029974;28;20228;-84
2023/09/14 04:49:48;;;;;;;1.00;0.73;;;;;;;;;;5038152;28;20227;-83
2023/09/14 04:52:14;;;;;;;1.43;0.77;;;;;;;;;;5029909;28;20234;-83
2023/09/14 04:54:39;;;;;;;8.00;1.13;;;;;;;;;;5039420;28;20227;-84
2023/09/14 04:57:05;;;;;;;2.27;1.00;;;;;;;;;;5011243;28;20782;-84
2023/09/14 04:59:33;;;;;;;0.70;0.70;;;;;;;;;;5079240;28;20238;-84
2023/09/14 05:02:01;;;;;;;1.17;0.80;;;;;;;;;;5025045;28;20203;-84
2023/09/14 05:04:26;;;;;;;3.23;0.70;;;;;;;;;;5019602;28;20227;-82
2023/09/14 05:06:53;;;;;;;0.93;0.80;;;;;;;;;;5028455;28;20223;-83
2023/09/14 05:09:26;;;;;;;1.50;1.00;;;;;;;;;;5013584;28;20315;-82
2023/09/14 05:11:53;;;;;;;2.13;1.10;;;;;;;;;;5047302;28;20235;-83
2023/09/14 05:14:19;;;;;;;1.20;1.00;;;;;;;;;;5059767;28;20212;-86
2023/09/14 05:16:45;;;;;;;1.80;1.40;;;;;;;;;;5032375;28;20211;-86
2023/09/14 05:19:11;;;;;;;1.20;1.10;;;;;;;;;;5020951;28;20224;-86
2023/09/14 05:21:38;;;;;;;1.67;1.17;;;;;;;;;;5031782;28;20636;-83
2023/09/14 05:24:04;;;;;;;2.27;0.90;;;;;;;;;;5006555;28;20241;-83
2023/09/14 05:26:35;;;;;;;1.43;1.00;;;;;;;;;;5040383;28;20275;-83
2023/09/14 05:29:07;;;;;;;1.40;0.90;;;;;;;;;;5057646;28;20231;-82
2023/09/14 05:31:35;;;;;;;1.00;1.00;;;;;;;;;;5026340;28;20242;-82
2023/09/14 05:34:00;;;;;;;1.20;1.10;;;;;;;;;;4997777;28;20235;-83
2023/09/14 05:36:26;;;;;;;0.80;0.80;;;;;;;;;;5011475;28;20216;-84
2023/09/14 05:38:54;;;;;;;0.97;0.90;;;;;;;;;;5025343;28;20242;-83
2023/09/14 05:41:24;;;;;;;1.90;1.30;;;;;;;;;;5016929;28;20311;-87
2023/09/14 05:43:49;;;;;;;1.60;1.13;;;;;;;;;;5016841;28;20219;-86
2023/09/14 05:46:18;;;;;;;1.20;1.10;;;;;;;;;;5016254;28;20604;-86
2023/09/14 05:48:43;;;;;;;3.23;1.20;;;;;;;;;;5019665;28;21541;-85
2023/09/14 05:51:09;;;;;;;2.20;1.10;;;;;;;;;;5033018;28;20250;-86
2023/09/14 05:53:35;;;;;;;2.23;1.17;;;;;;;;;;5017113;28;20219;-85
2023/09/14 05:56:04;;;;;;;2.90;1.20;;;;;;;;;;5003383;28;20223;-85
2023/09/14 05:58:30;;;;;;;3.00;1.33;;;;;;;;;;5018838;28;20216;-84
2023/09/14 06:01:00;;;;;;;2.33;1.20;;;;;;;;;;5041008;28;20219;-84
2023/09/14 06:03:28;;;;;;;1.93;1.23;;;;;;;;;;5020391;28;20253;-84
2023/09/14 06:05:53;;;;;;;1.90;1.13;;;;;;;;;;5017190;28;20258;-84
2023/09/14 06:08:23;;;;;;;1.80;1.40;;;;;;;;;;5042673;28;20230;-85
2023/09/14 06:10:49;;;;;;;2.70;1.40;;;;;;;;;;5020212;28;20228;-86
2023/09/14 06:13:16;;;;;;;2.13;1.20;;;;;;;;;;5035136;28;20230;-84
2023/09/14 06:15:42;;;;;;;2.00;1.30;;;;;;;;;;5033644;28;20243;-84
2023/09/14 06:18:07;;;;;;;2.07;1.40;;;;;;;;;;5019474;28;20692;-84
2023/09/14 06:20:33;;;;;;;2.40;1.50;;;;;;;;;;5034512;28;20219;-84
2023/09/14 06:22:58;;;;;;;3.37;1.70;;;;;;;;;;5018561;28;20219;-85
2023/09/14 06:25:24;;;;;;;1.40;1.30;;;;;;;;;;5041424;28;20235;-85
2023/09/14 06:27:52;;;;;;;2.33;1.80;;;;;;;;;;5025510;28;20330;-84
2023/09/14 06:30:17;;;;;;;2.10;1.57;;;;;;;;;;5033399;28;20253;-86
2023/09/14 06:32:43;;;;;;;2.83;1.37;;;;;;;;;;5017151;28;20222;-85
2023/09/14 06:35:09;;;;;;;2.53;1.50;;;;;;;;;;5033021;28;20219;-87
2023/09/14 06:37:37;;;;;;;3.00;1.40;;;;;;;;;;5017253;28;20214;-85
2023/09/14 06:40:08;;;;;;;3.03;1.83;;;;;;;;;;5039173;28;20242;-84
2023/09/14 06:42:34;;;;;;;3.00;1.50;;;;;;;;;;5032123;28;20634;-86
2023/09/14 06:45:00;;;;;;;4.17;1.50;;;;;;;;;;5034203;28;20230;-85
2023/09/14 06:47:26;;;;;;;1.50;1.30;;;;;;;;;;5016709;28;20342;-85
2023/09/14 06:49:54;;;;;;;1.87;1.40;;;;;;;;;;5015155;28;20222;-85
2023/09/14 06:52:22;;;;;;;3.23;1.50;;;;;;;;;;5032900;28;20567;-83
2023/09/14 06:54:50;;;;;;;3.03;1.60;;;;;;;;;;5025569;28;21266;-85
2023/09/14 06:57:16;;;;;;;2.00;1.80;;;;;;;;;;5010872;28;20255;-83
2023/09/14 06:59:43;;;;;;;2.13;1.50;;;;;;;;;;5018359;28;20629;-85
2023/09/14 07:02:09;;;;;;;6.00;1.93;;;;;;;;;;5033727;28;20230;-84
2023/09/14 07:04:39;;;;;;;3.90;1.87;;;;;;;;;;5017004;28;20207;-86
2023/09/14 07:07:05;;;;;;;3.03;1.80;;;;;;;;;;5046916;28;20234;-86
2023/09/14 07:09:30;;;;;;;4.67;1.70;;;;;;;;;;5034935;28;20219;-82
2023/09/14 07:11:56;;;;;;;6.77;2.13;;;;;;;;;;5068634;28;20253;-83
2023/09/14 07:14:22;;;;;;;5.73;2.00;;;;;;;;;;5030190;28;20234;-84
2023/09/14 07:16:50;;;;;;;5.07;1.67;;;;;;;;;;5019266;28;20208;-86
2023/09/14 07:19:15;;;;;;;2.93;1.67;;;;;;;;;;5033318;28;20223;-85
2023/09/14 07:21:41;;;;;;;2.40;1.73;;;;;;;;;;5039757;28;20223;-85
2023/09/14 07:24:06;;;;;;;2.93;2.00;;;;;;;;;;5015122;28;20614;-83
2023/09/14 07:26:38;;;;;;;2.37;1.50;;;;;;;;;;5015062;28;20223;-85
2023/09/14 07:29:07;;;;;;;2.43;1.80;;;;;;;;;;5032861;28;20215;-83
2023/09/14 07:31:37;;;;;;;3.47;2.00;;;;;;;;;;5008096;28;20293;-84
2023/09/14 07:34:03;;;;;;;2.97;1.70;;;;;;;;;;5031397;28;20752;-84
2023/09/14 07:36:28;;;;;;;2.53;1.87;;;;;;;;;;5012029;28;20223;-86
2023/09/14 07:38:56;;;;;;;3.63;1.43;;;;;;;;;;5023285;28;20219;-86
2023/09/14 07:41:26;;;;;;;2.07;1.60;;;;;;;;;;4989517;28;20227;-84
2023/09/14 07:43:52;;;;;;;7.60;2.00;;;;;;;;;;5016764;28;20215;-87
2023/09/14 07:46:17;;;;;;;3.30;1.63;;;;;;;;;;5005089;28;20735;-86
2023/09/14 07:48:43;;;;;;;2.83;1.50;;;;;;;;;;5009940;28;20223;-86
2023/09/14 07:51:08;;;;;;;3.13;1.27;;;;;;;;;;4988512;28;20230;-86
2023/09/14 07:53:39;;;;;;;2.70;1.20;;;;;;;;;;5025349;28;20227;-85
2023/09/14 07:56:04;;;;;;;2.65;1.35;;;;;;;;;;5006268;28;20314;-86
2023/09/14 07:58:30;;;;;;;3.70;1.30;;;;;;;;;;5024477;28;20223;-85
2023/09/14 08:00:55;;;;;;;5.72;1.05;;;;;;;;;;5004737;28;20328;-86
2023/09/14 08:03:21;;;;;;;3.72;1.25;;;;;;;;;;5020676;28;20227;-84
2023/09/14 08:05:47;;;;;;;3.90;1.30;;;;;;;;;;5007793;28;20227;-84
2023/09/14 08:08:15;;;;;;;2.17;1.02;;;;;;;;;;5008605;28;20329;-86
2023/09/14 08:10:51;;;;;;;4.07;1.40;;;;;;;;;;5008927;28;20220;-86
2023/09/14 08:13:17;;;;;;;3.40;1.05;;;;;;;;;;5032743;28;20231;-84
2023/09/14 08:15:42;;;;;;;3.20;1.15;;;;;;;;;;5025357;28;20226;-85
2023/09/14 08:18:08;;;;;;;4.10;1.05;;;;;;;;;;5033438;28;20219;-87
2023/09/14 08:20:39;;;;;;;1.88;0.80;;;;;;;;;;5015691;28;20227;-86
2023/09/14 08:23:05;;;;;;;5.40;1.17;;;;;;;;;;5051780;28;20215;-84
2023/09/14 08:25:33;;;;;;;6.50;1.15;;;;;;;;;;5033426;28;20649;-85
2023/09/14 08:27:58;;;;;;;2.85;0.90;;;;;;;;;;5017536;28;20602;-83
2023/09/14 08:30:26;;;;;;;4.72;1.00;;;;;;;;;;5024402;28;20230;-85
2023/09/14 08:32:51;;;;;;;4.20;1.20;;;;;;;;;;5045891;28;20212;-84
2023/09/14 08:35:23;;;;;;;4.80;1.20;;;;;;;;;;5009444;28;20726;-86
2023/09/14 08:37:54;;;;;;;5.60;1.00;;;;;;;;;;5070310;28;20230;-84
2023/09/14 08:40:25;;;;;;;1.95;0.90;;;;;;;;;;5021500;28;20220;-85
2023/09/14 08:42:54;;;;;;;1.52;0.95;;;;;;;;;;5058510;28;20275;-83
2023/09/14 08:45:32;;;;;;;2.78;1.00;;;;;;;;;;5023037;28;20394;-84
2023/09/14 08:47:58;;;;;;;7.35;1.02;;;;;;;;;;5051152;28;20222;-83
2023/09/14 08:50:30;;;;;;;3.88;1.13;;;;;;;;;;5019798;28;20219;-82
2023/09/14 08:52:58;;;;;;;2.42;0.90;;;;;;;;;;5020008;28;20321;-84
2023/09/14 08:55:29;;;;;;;1.92;0.82;;;;;;;;;;5015862;28;20220;-86
2023/09/14 08:57:56;;;;;;;3.30;1.02;;;;;;;;;;5014026;28;20219;-85
2023/09/14 09:00:26;;;;;;;4.40;0.98;;;;;;;;;;5035379;28;20275;-85
2023/09/14 09:02:53;;;;;;;3.97;0.95;;;;;;;;;;5014792;28;20688;-86
2023/09/14 09:05:19;;;;;;;6.72;1.23;;;;;;;;;;5021931;28;20238;-85
2023/09/14 09:07:46;;;;;;;6.88;1.08;;;;;;;;;;5019870;28;20665;-84
2023/09/14 09:10:22;;;;;;;2.15;1.00;;;;;;;;;;5036227;28;20215;-86
2023/09/14 09:12:49;;;;;;;3.25;0.90;;;;;;;;;;5022140;28;20212;-84
2023/09/14 09:15:15;;;;;;;3.17;1.02;;;;;;;;;;5068486;28;20238;-84
2023/09/14 09:17:46;;;;;;;2.15;0.90;;;;;;;;;;5023647;28;20937;-85
2023/09/14 09:20:19;;;;;;;3.00;1.00;;;;;;;;;;5024113;28;20786;-86
2023/09/14 09:22:45;;;;;;;2.22;1.10;;;;;;;;;;5027936;28;20223;-85
2023/09/14 09:25:13;;;;;;;3.10;0.90;;;;;;;;;;5037321;28;20224;-84
2023/09/14 09:27:39;;;;;;;3.55;0.90;;;;;;;;;;5021180;28;20247;-84
2023/09/14 09:30:10;;;;;;;2.47;1.08;;;;;;;;;;5040981;28;20215;-85
2023/09/14 09:32:37;;;;;;;3.72;1.33;;;;;;;;;;5049749;28;20311;-86
2023/09/14 09:35:19;;;;;;;3.17;1.10;;;;;;;;;;5021908;28;20215;-86
2023/09/14 09:37:45;;;;;;;3.72;1.08;;;;;;;;;;5035745;28;20219;-85
2023/09/14 09:40:12;;;;;;;1.85;0.90;;;;;;;;;;5023722;28;20220;-84
2023/09/14 09:42:40;;;;;;;2.45;0.80;;;;;;;;;;5035349;28;20219;-85
2023/09/14 09:45:07;;;;;;;2.10;0.90;;;;;;;;;;5038434;28;20235;-83
2023/09/14 09:47:35;;;;;;;2.42;1.05;;;;;;;;;;5036266;28;20589;-84
2023/09/14 09:50:04;;;;;;;2.40;0.80;;;;;;;;;;5028077;28;20600;-85
2023/09/14 09:52:32;;;;;;;2.97;1.00;;;;;;;;;;5017653;28;20963;-84
2023/09/14 09:54:58;;;;;;;1.30;0.80;;;;;;;;;;5019966;28;20762;-83
2023/09/14 09:57:35;;;;;;;7.13;1.17;;;;;;;;;;5020340;28;20240;-84
2023/09/14 10:00:11;;;;;;;3.40;0.98;;;;;;;;;;5042140;28;20238;-86
2023/09/14 10:02:37;;;;;;;2.17;0.90;;;;;;;;;;5022950;28;20230;-85
2023/09/14 10:05:03;;;;;;;4.18;0.93;;;;;;;;;;5020456;28;20242;-84
2023/09/14 10:07:29;;;;;;;3.80;1.00;;;;;;;;;;5020213;28;20621;-85
2023/09/14 10:09:54;;;;;;;2.53;1.00;;;;;;;;;;5018726;28;20277;-85
2023/09/14 10:12:24;;;;;;;2.28;1.00;;;;;;;;;;5041129;28;20219;-85
2023/09/14 10:14:51;;;;;;;1.13;0.75;;;;;;;;;;5034486;28;20211;-86
2023/09/14 10:17:22;;;;;;;2.08;0.70;;;;;;;;;;5035617;28;20218;-86
2023/09/14 10:19:48;;;;;;;1.30;0.90;;;;;;;;;;5003341;28;20254;-85
2023/09/14 10:22:14;;;;;;;2.75;0.85;;;;;;;;;;5035237;28;20223;-85
2023/09/14 10:24:41;;;;;;;4.00;1.17;;;;;;;;;;5032514;28;21046;-85
2023/09/14 10:27:08;;;;;;;2.60;1.00;;;;;;;;;;5034330;28;20223;-84
2023/09/14 10:29:36;;;;;;;2.85;0.90;;;;;;;;;;5013565;28;20223;-86
2023/09/14 10:32:01;;;;;;;6.97;1.15;;;;;;;;;;5040863;28;20208;-85
2023/09/14 10:34:29;;;;;;;4.65;1.35;;;;;;;;;;5017188;28;20281;-84
2023/09/14 10:37:00;;;;;;;2.55;0.98;;;;;;;;;;4998026;28;20215;-84
2023/09/14 10:39:26;;;;;;;3.05;0.80;;;;;;;;;;5027894;28;20273;-85
2023/09/14 10:41:52;;;;;;;4.35;1.00;;;;;;;;;;5026819;28;20207;-84
2023/09/14 10:44:21;;;;;;;3.63;0.95;;;;;;;;;;5017707;28;20219;-83
2023/09/14 10:46:47;;;;;;;2.85;0.82;;;;;;;;;;5017871;28;20223;-86
2023/09/14 10:49:15;;;;;;;2.40;0.68;;;;;;;;;;5017182;28;20287;-86
2023/09/14 10:51:44;;;;;;;3.30;1.10;;;;;;;;;;5030915;28;20273;-85
2023/09/14 10:54:12;;;;;;;1.90;0.80;;;;;;;;;;5014928;28;20219;-84
2023/09/14 10:56:40;;;;;;;3.60;0.93;;;;;;;;;;5038023;28;20215;-85
2023/09/14 10:59:08;;;;;;;3.05;0.77;;;;;;;;;;5030745;28;20231;-86
2023/09/14 11:01:44;;;;;;;3.33;0.98;;;;;;;;;;5017262;28;20274;-83
2023/09/14 11:04:11;;;;;;;2.38;0.98;;;;;;;;;;5044156;28;20664;-84
2023/09/14 11:06:40;;;;;;;3.33;1.33;;;;;;;;;;5024110;28;20956;-85
2023/09/14 11:09:08;;;;;;;5.40;1.05;;;;;;;;;;5029297;28;20223;-84
2023/09/14 11:11:54;;;;;;;1.60;0.95;;;;;;;;;;5033114;28;20257;-83
2023/09/14 11:14:24;;;;;;;2.10;0.90;;;;;;;;;;5035407;28;20348;-85
2023/09/14 11:16:52;;;;;;;1.42;0.70;;;;;;;;;;5035794;28;20219;-83
2023/09/14 11:19:30;;;;;;;2.88;0.93;;;;;;;;;;5037851;28;20211;-85
2023/09/14 11:22:14;;;;;;;1.38;0.63;;;;;;;;;;5062990;28;20250;-82
2023/09/14 11:24:41;;;;;;;3.88;0.70;;;;;;;;;;5062468;28;20234;-81
2023/09/14 11:27:08;;;;;;;1.77;0.80;;;;;;;;;;5027512;28;20759;-83
2023/09/14 11:29:36;;;;;;;1.40;0.75;;;;;;;;;;5046373;28;20314;-83
2023/09/14 11:32:07;;;;;;;2.45;0.80;;;;;;;;;;5029630;28;20246;-83
2023/09/14 11:34:35;;;;;;;2.33;0.88;;;;;;;;;;5030887;28;20204;-83
2023/09/14 11:37:05;;;;;;;2.72;0.82;;;;;;;;;;5024497;28;20215;-83
2023/09/14 11:39:31;;;;;;;2.85;0.85;;;;;;;;;;5041794;28;20306;-84
2023/09/14 11:42:00;;;;;;;1.70;0.85;;;;;;;;;;5024764;28;20636;-86
2023/09/14 11:44:29;;;;;;;2.05;0.95;;;;;;;;;;5017813;28;20226;-85
2023/09/14 11:47:01;;;;;;;1.88;0.70;;;;;;;;;;5022141;28;20235;-83
2023/09/14 11:49:33;;;;;;;2.80;1.00;;;;;;;;;;5047279;28;20853;-84
2023/09/14 11:52:01;;;;;;;1.25;0.80;;;;;;;;;;5019025;28;20666;-85
2023/09/14 11:54:35;;;;;;;2.15;0.75;;;;;;;;;;5020471;28;20301;-85
2023/09/14 11:57:03;;;;;;;2.00;1.05;;;;;;;;;;5019185;28;20215;-86
2023/09/14 11:59:30;;;;;;;2.53;1.00;;;;;;;;;;5016364;28;20235;-86
2023/09/14 12:01:58;;;;;;;2.90;0.75;;;;;;;;;;5032635;28;20303;-86
2023/09/14 12:04:29;;;;;;;2.63;0.80;;;;;;;;;;5027041;28;20663;-83
2023/09/14 12:07:00;;;;;;;3.80;0.93;;;;;;;;;;5021681;28;20215;-86
2023/09/14 12:09:33;;;;;;;2.38;0.93;;;;;;;;;;5018859;28;20220;-88
2023/09/14 12:11:59;;;;;;;2.13;0.77;;;;;;;;;;5019359;28;20227;-88
2023/09/14 12:14:36;;;;;;;1.35;0.73;;;;;;;;;;5015302;28;20212;-88
2023/09/14 12:17:26;;;;;;;2.97;1.00;;;;;;;;;;5024570;28;20226;-88
2023/09/14 12:19:56;;;;;;;1.98;1.00;;;;;;;;;;5013039;28;20630;-88
2023/09/14 12:22:22;;;;;;;2.63;0.80;;;;;;;;;;5018597;28;20223;-88
2023/09/14 12:24:49;;;;;;;2.45;0.93;;;;;;;;;;5015575;28;20236;-89
2023/09/14 12:27:15;;;;;;;4.78;1.08;;;;;;;;;;5043764;28;20298;-88
2023/09/14 12:29:41;;;;;;;1.95;0.85;;;;;;;;;;5004043;28;20224;-87
2023/09/14 12:32:10;;;;;;;3.67;1.17;;;;;;;;;;5037958;28;20228;-89
2023/09/14 12:34:39;;;;;;;1.42;0.70;;;;;;;;;;5022326;28;20211;-88
2023/09/14 12:37:05;;;;;;;5.03;1.20;;;;;;;;;;5025365;28;20215;-89
2023/09/14 12:39:32;;;;;;;1.67;0.70;;;;;;;;;;5025121;28;20237;-87
2023/09/14 12:42:01;;;;;;;2.70;1.35;;;;;;;;;;4998258;28;20228;-87
2023/09/14 12:44:26;;;;;;;1.77;0.93;;;;;;;;;;5018762;28;20669;-88
2023/09/14 12:46:55;;;;;;;2.67;0.98;;;;;;;;;;5014798;28;20215;-88
2023/09/14 12:49:21;;;;;;;1.77;1.05;;;;;;;;;;5031722;28;20230;-88
2023/09/14 12:51:54;;;;;;;2.80;0.85;;;;;;;;;;5017502;28;20710;-87
2023/09/14 12:54:24;;;;;;;3.90;1.23;;;;;;;;;;5033905;28;20225;-88
2023/09/14 12:57:13;;;;;;;2.47;0.85;;;;;;;;;;5015738;28;20224;-89
2023/09/14 13:00:31;;;;;;;;;;;;;;;;;;;;;
2023/09/14 13:03:10;;;;;;;1.45;0.80;;;;;;;;;;5030001;28;20302;-90
2023/09/14 13:05:39;;;;;;;4.20;1.08;;;;;;;;;;5022690;28;20522;-87
2023/09/14 13:08:17;;;;;;;1.15;0.73;;;;;;;;;;5032251;28;20223;-88
2023/09/14 13:10:43;;;;;;;3.15;0.90;;;;;;;;;;5029975;28;20222;-87
2023/09/14 13:13:10;;;;;;;2.85;0.85;;;;;;;;;;5026964;28;20624;-86
2023/09/14 13:15:37;;;;;;;3.08;0.95;;;;;;;;;;5040872;28;20222;-87
2023/09/14 13:18:05;;;;;;;2.83;0.88;;;;;;;;;;5035641;28;20711;-88
2023/09/14 13:20:34;;;;;;;2.30;0.95;;;;;;;;;;5022590;28;20219;-87
2023/09/14 13:23:00;;;;;;;1.27;0.80;;;;;;;;;;5020973;28;20212;-88
2023/09/14 13:25:26;;;;;;;3.53;1.08;;;;;;;;;;5040134;28;20377;-88
2023/09/14 13:27:54;;;;;;;3.42;0.95;;;;;;;;;;5014046;28;20245;-87
2023/09/14 13:30:20;;;;;;;2.25;0.90;;;;;;;;;;5029798;28;20255;-84
2023/09/14 13:32:47;;;;;;;1.40;0.90;;;;;;;;;;5059088;28;20218;-87
2023/09/14 13:35:13;;;;;;;1.70;0.80;;;;;;;;;;5026660;28;20257;-89
2023/09/14 13:37:42;;;;;;;1.85;0.80;;;;;;;;;;5001106;28;20708;-89
2023/09/14 13:40:18;;;;;;;3.42;1.08;;;;;;;;;;5050714;23;20223;-73
2023/09/14 13:42:49;;;;;;;2.85;0.80;;;;;;;;;;5055852;28;20309;-75
2023/09/14 13:45:18;;;;;;;1.63;0.80;;;;;;;;;;5054152;28;20226;-74
2023/09/14 13:47:43;;;;;;;1.90;0.98;;;;;;;;;;5042535;28;20315;-75
2023/09/14 13:50:16;;;;;;;3.47;1.20;;;;;;;;;;5075140;28;20497;-74
2023/09/14 13:52:44;;;;;;;2.65;1.10;;;;;;;;;;5068794;28;20222;-75
2023/09/14 13:55:10;;;;;;;1.30;0.90;;;;;;;;;;5043832;28;20946;-74
2023/09/14 13:57:40;;;;;;;2.83;0.90;;;;;;;;;;5054264;28;20219;-76
2023/09/14 14:00:13;;;;;;;2.97;0.93;;;;;;;;;;5038325;28;20214;-74
2023/09/14 14:02:42;;;;;;;1.52;0.80;;;;;;;;;;5070101;28;20221;-75
2023/09/14 14:05:08;;;;;;;1.92;0.88;;;;;;;;;;5054144;28;20226;-75
2023/09/14 14:07:36;;;;;;;2.20;1.02;;;;;;;;;;5042841;28;20668;-74
2023/09/14 14:10:05;;;;;;;1.75;1.00;;;;;;;;;;5078061;28;20222;-75
2023/09/14 14:12:31;;;;;;;2.30;0.77;;;;;;;;;;5067622;28;20229;-73
2023/09/14 14:14:57;;;;;;;1.38;0.85;;;;;;;;;;5040502;28;20210;-75
2023/09/14 14:17:25;;;;;;;1.27;0.68;;;;;;;;;;5086955;28;20739;-76
2023/09/14 14:19:54;;;;;;;2.65;1.00;;;;;;;;;;5058802;28;20214;-75
2023/09/14 14:22:20;;;;;;;2.92;0.80;;;;;;;;;;5056898;28;20619;-74
2023/09/14 14:24:48;;;;;;;7.43;0.90;;;;;;;;;;5076041;28;20231;-74
2023/09/14 14:27:17;;;;;;;1.65;0.70;;;;;;;;;;5042206;28;20295;-73
2023/09/14 14:29:42;;;;;;;2.00;0.98;;;;;;;;;;5085480;28;20720;-76
2023/09/14 14:32:10;;;;;;;1.92;0.88;;;;;;;;;;5053007;28;20221;-76
2023/09/14 14:34:38;;;;;;;2.42;0.80;;;;;;;;;;5087423;28;20225;-76
2023/09/14 14:37:04;;;;;;;3.50;1.02;;;;;;;;;;5085022;28;20290;-75
2023/09/14 14:39:30;;;;;;;1.23;0.90;;;;;;;;;;5054817;28;20222;-76
2023/09/14 14:41:57;;;;;;;2.47;0.98;;;;;;;;;;5050989;28;20236;-77
2023/09/14 14:44:26;;;;;;;3.22;0.88;;;;;;;;;;5067280;28;20301;-75
2023/09/14 14:46:54;;;;;;;0.98;0.73;;;;;;;;;;5057912;28;20219;-77
2023/09/14 14:49:21;;;;;;;2.72;0.88;;;;;;;;;;5056269;28;20238;-76
2023/09/14 14:51:49;;;;;;;1.40;1.00;;;;;;;;;;5037572;28;20434;-76
2023/09/14 14:54:19;;;;;;;3.85;0.90;;;;;;;;;;5051443;28;20226;-74